sensor_id;sensor_type;location;lat;lon;timestamp;temperature;humidity
23495;DHT22;26107;50.832;2.950;2023-04-24T00:02:21;9.20;99.90
23495;DHT22;26107;50.832;2.950;2023-04-24T00:17:22;9.10;99.90
23495;DHT22;26107;50.832;2.950;2023-04-24T00:32:23;9.00;99.90
23495;DHT22;26107;50.832;2.950;2023-04-24T00:47:23;9.00;99.90
23495;DHT22;26107;50.832;2.950;2023-04-24T01:02:25;8.90;99.90
23495;DHT22;26107;50.832;2.950;2023-04-24T01:17:26;8.80;99.90
23495;DHT22;26107;50.832;2.950;2023-04-24T01:32:28;8.80;99.90
23495;DHT22;26107;50.832;2.950;2023-04-24T01:47:30;8.60;99.90
23495;DHT22;26107;50.832;2.950;2023-04-24T02:02:30;9.00;99.90
23495;DHT22;26107;50.832;2.950;2023-04-24T02:17:31;9.10;99.90
23495;DHT22;26107;50.832;2.950;2023-04-24T02:32:32;9.00;99.90
23495;DHT22;26107;50.832;2.950;2023-04-24T02:47:32;8.80;99.90
23495;DHT22;26107;50.832;2.950;2023-04-24T03:02:33;8.70;99.90
23495;DHT22;26107;50.832;2.950;2023-04-24T03:17:34;8.70;99.90
23495;DHT22;26107;50.832;2.950;2023-04-24T03:32:35;8.90;99.90
23495;DHT22;26107;50.832;2.950;2023-04-24T03:47:36;9.30;99.90
23495;DHT22;26107;50.832;2.950;2023-04-24T04:02:36;9.50;99.90
23495;DHT22;26107;50.832;2.950;2023-04-24T04:17:37;9.40;99.90
23495;DHT22;26107;50.832;2.950;2023-04-24T04:32:38;9.50;99.90
23495;DHT22;26107;50.832;2.950;2023-04-24T04:47:39;9.10;99.90
23495;DHT22;26107;50.832;2.950;2023-04-24T05:02:39;9.30;99.90
23495;DHT22;26107;50.832;2.950;2023-04-24T05:17:40;9.00;99.90
23495;DHT22;26107;50.832;2.950;2023-04-24T05:32:41;9.00;99.90
23495;DHT22;26107;50.832;2.950;2023-04-24T05:47:42;9.10;99.90
23495;DHT22;26107;50.832;2.950;2023-04-24T06:02:44;9.00;99.90
23495;DHT22;26107;50.832;2.950;2023-04-24T06:17:44;9.00;99.90
23495;DHT22;26107;50.832;2.950;2023-04-24T06:32:45;9.10;99.90
23495;DHT22;26107;50.832;2.950;2023-04-24T06:47:46;9.10;99.90
23495;DHT22;26107;50.832;2.950;2023-04-24T07:02:46;9.30;99.90
23495;DHT22;26107;50.832;2.950;2023-04-24T07:17:47;9.60;99.90
23495;DHT22;26107;50.832;2.950;2023-04-24T07:32:48;9.60;99.90
23495;DHT22;26107;50.832;2.950;2023-04-24T07:47:49;9.70;99.90
23495;DHT22;26107;50.832;2.950;2023-04-24T08:02:50;9.90;99.90
23495;DHT22;26107;50.832;2.950;2023-04-24T08:17:51;10.10;99.90
23495;DHT22;26107;50.832;2.950;2023-04-24T08:32:52;10.20;99.90
23495;DHT22;26107;50.832;2.950;2023-04-24T08:47:53;10.20;99.90
23495;DHT22;26107;50.832;2.950;2023-04-24T09:02:57;10.50;99.90
23495;DHT22;26107;50.832;2.950;2023-04-24T09:17:58;10.40;99.90
23495;DHT22;26107;50.832;2.950;2023-04-24T09:33:14;10.40;99.90
23495;DHT22;26107;50.832;2.950;2023-04-24T09:48:15;10.60;99.90
23495;DHT22;26107;50.832;2.950;2023-04-24T10:03:18;10.90;99.90
23495;DHT22;26107;50.832;2.950;2023-04-24T10:18:20;11.30;99.90
23495;DHT22;26107;50.832;2.950;2023-04-24T10:33:22;11.10;99.90
23495;DHT22;26107;50.832;2.950;2023-04-24T10:48:26;11.40;99.90
23495;DHT22;26107;50.832;2.950;2023-04-24T11:03:30;11.20;99.90
23495;DHT22;26107;50.832;2.950;2023-04-24T11:18:37;11.50;99.90
23495;DHT22;26107;50.832;2.950;2023-04-24T11:33:38;11.90;99.90
23495;DHT22;26107;50.832;2.950;2023-04-24T11:48:45;11.60;99.90
23495;DHT22;26107;50.832;2.950;2023-04-24T12:03:50;11.80;99.90
23495;DHT22;26107;50.832;2.950;2023-04-24T12:18:51;12.10;99.90
23495;DHT22;26107;50.832;2.950;2023-04-24T12:33:52;11.90;99.90
23495;DHT22;26107;50.832;2.950;2023-04-24T12:48:52;12.20;99.90
23495;DHT22;26107;50.832;2.950;2023-04-24T13:03:53;12.00;99.90
23495;DHT22;26107;50.832;2.950;2023-04-24T13:18:54;12.20;99.90
23495;DHT22;26107;50.832;2.950;2023-04-24T13:33:54;12.60;99.90
23495;DHT22;26107;50.832;2.950;2023-04-24T13:48:55;12.50;99.90
23495;DHT22;26107;50.832;2.950;2023-04-24T14:03:55;12.20;99.90
23495;DHT22;26107;50.832;2.950;2023-04-24T14:18:56;11.90;99.90
23495;DHT22;26107;50.832;2.950;2023-04-24T14:33:57;11.80;99.90
23495;DHT22;26107;50.832;2.950;2023-04-24T14:48:58;11.80;99.90
23495;DHT22;26107;50.832;2.950;2023-04-24T15:03:58;12.30;99.90
23495;DHT22;26107;50.832;2.950;2023-04-24T15:18:59;12.80;99.90
23495;DHT22;26107;50.832;2.950;2023-04-24T15:34:00;11.90;99.90
23495;DHT22;26107;50.832;2.950;2023-04-24T15:49:00;11.80;99.90
23495;DHT22;26107;50.832;2.950;2023-04-24T16:04:01;11.60;99.90
23495;DHT22;26107;50.832;2.950;2023-04-24T16:19:02;11.90;99.90
23495;DHT22;26107;50.832;2.950;2023-04-24T16:34:02;13.70;99.90
23495;DHT22;26107;50.832;2.950;2023-04-24T16:49:03;15.00;99.90
23495;DHT22;26107;50.832;2.950;2023-04-24T17:04:03;13.90;99.90
23495;DHT22;26107;50.832;2.950;2023-04-24T17:19:04;13.30;99.90
23495;DHT22;26107;50.832;2.950;2023-04-24T17:34:05;13.00;99.90
23495;DHT22;26107;50.832;2.950;2023-04-24T17:49:07;12.30;99.90
23495;DHT22;26107;50.832;2.950;2023-04-24T18:04:07;12.90;99.90
23495;DHT22;26107;50.832;2.950;2023-04-24T18:19:08;12.00;99.90
23495;DHT22;26107;50.832;2.950;2023-04-24T18:34:08;12.10;99.90
23495;DHT22;26107;50.832;2.950;2023-04-24T18:49:09;12.10;99.90
23495;DHT22;26107;50.832;2.950;2023-04-24T19:04:10;11.70;99.90
23495;DHT22;26107;50.832;2.950;2023-04-24T19:19:10;11.70;99.90
23495;DHT22;26107;50.832;2.950;2023-04-24T19:34:11;11.40;99.90
23495;DHT22;26107;50.832;2.950;2023-04-24T19:49:12;11.30;99.90
23495;DHT22;26107;50.832;2.950;2023-04-24T20:04:14;11.20;99.90
23495;DHT22;26107;50.832;2.950;2023-04-24T20:19:15;11.00;99.90
23495;DHT22;26107;50.832;2.950;2023-04-24T20:34:15;11.20;99.90
23495;DHT22;26107;50.832;2.950;2023-04-24T20:49:16;10.50;99.90
23495;DHT22;26107;50.832;2.950;2023-04-24T21:04:16;10.70;99.90
23495;DHT22;26107;50.832;2.950;2023-04-24T21:19:17;10.90;99.90
23495;DHT22;26107;50.832;2.950;2023-04-24T21:34:17;10.50;99.90
23495;DHT22;26107;50.832;2.950;2023-04-24T21:49:18;10.20;99.90
23495;DHT22;26107;50.832;2.950;2023-04-24T22:04:19;10.40;99.90
23495;DHT22;26107;50.832;2.950;2023-04-24T22:19:19;10.60;99.90
23495;DHT22;26107;50.832;2.950;2023-04-24T22:34:20;10.70;99.90
23495;DHT22;26107;50.832;2.950;2023-04-24T22:49:20;10.80;99.90
23495;DHT22;26107;50.832;2.950;2023-04-24T23:04:21;10.70;99.90
23495;DHT22;26107;50.832;2.950;2023-04-24T23:19:22;10.60;99.90
23495;DHT22;26107;50.832;2.950;2023-04-24T23:34:22;10.90;99.90
23495;DHT22;26107;50.832;2.950;2023-04-24T23:49:23;10.90;99.90
